createdAt,value
2022-12-23T00:03:37.536Z,3
2022-12-23T00:08:39.342Z,3
2022-12-23T00:13:41.047Z,4
2022-12-23T00:18:42.824Z,3
2022-12-23T00:23:44.488Z,4
2022-12-23T00:28:46.149Z,3
2022-12-23T00:33:47.994Z,2
2022-12-23T00:38:49.666Z,3
2022-12-23T00:43:51.362Z,2
2022-12-23T00:48:53.011Z,3
2022-12-23T00:53:54.726Z,5
2022-12-23T00:58:56.414Z,10
2022-12-23T01:03:58.128Z,4
2022-12-23T01:08:59.733Z,5
2022-12-23T01:14:01.400Z,6
2022-12-23T01:19:03.093Z,4
2022-12-23T01:24:04.720Z,3
2022-12-23T01:29:06.521Z,1
2022-12-23T01:34:08.211Z,3
2022-12-23T01:39:09.901Z,4
2022-12-23T01:44:11.680Z,5
2022-12-23T01:49:13.345Z,3
2022-12-23T01:54:15.088Z,3
2022-12-23T01:59:16.905Z,1
2022-12-23T02:04:18.644Z,2
2022-12-23T02:09:20.373Z,4
2022-12-23T02:14:22.252Z,5
2022-12-23T02:19:23.957Z,3
2022-12-23T02:24:25.571Z,4
2022-12-23T02:29:27.217Z,7
2022-12-23T02:34:28.942Z,13
2022-12-23T02:39:30.662Z,9
2022-12-23T02:44:32.351Z,7
2022-12-23T02:49:34.144Z,4
2022-12-23T02:54:35.837Z,7
2022-12-23T02:59:37.648Z,9
2022-12-23T03:04:39.270Z,10
2022-12-23T03:09:40.969Z,10
2022-12-23T03:14:42.677Z,18
2022-12-23T03:19:44.428Z,5
2022-12-23T03:24:46.103Z,7
2022-12-23T03:29:47.849Z,4
2022-12-23T03:34:49.548Z,3
2022-12-23T03:39:51.199Z,5
2022-12-23T03:45:19.664Z,4
2022-12-23T03:50:38.542Z,4
2022-12-23T03:55:40.197Z,5
2022-12-23T04:00:41.917Z,5
2022-12-23T04:05:43.793Z,6
2022-12-23T04:10:45.484Z,5
2022-12-23T04:15:47.195Z,2
2022-12-23T04:20:48.926Z,2
2022-12-23T04:25:50.562Z,2
2022-12-23T04:30:52.231Z,2
2022-12-23T04:35:53.876Z,5
2022-12-23T04:40:55.555Z,3
2022-12-23T04:45:57.426Z,16
2022-12-23T04:50:59.096Z,10
2022-12-23T04:56:00.775Z,4
2022-12-23T05:01:02.525Z,8
2022-12-23T05:06:04.454Z,5
2022-12-23T05:11:06.166Z,8
2022-12-23T05:16:08.048Z,5
2022-12-23T05:21:09.743Z,5
2022-12-23T05:26:11.395Z,10
2022-12-23T05:31:13.297Z,4
2022-12-23T05:36:15.025Z,3
2022-12-23T05:41:16.672Z,3
2022-12-23T05:46:24.316Z,1
2022-12-23T05:51:28.179Z,4
2022-12-23T05:56:30.060Z,4
2022-12-23T06:01:31.781Z,1
2022-12-23T06:06:33.603Z,3
2022-12-23T06:11:35.227Z,4
2022-12-23T06:16:36.995Z,3
2022-12-23T06:21:38.720Z,4
2022-12-23T06:26:40.415Z,3
2022-12-23T06:31:42.142Z,6
2022-12-23T06:36:43.814Z,1
2022-12-23T06:41:45.485Z,3
2022-12-23T06:46:47.167Z,3
2022-12-23T06:51:48.932Z,1
2022-12-23T06:56:50.868Z,1
2022-12-23T07:01:52.704Z,1
2022-12-23T07:06:54.478Z,1
2022-12-23T07:11:56.123Z,4
2022-12-23T07:16:58.118Z,3
2022-12-23T07:21:59.880Z,4
2022-12-23T07:27:01.677Z,1
2022-12-23T07:32:03.434Z,1
2022-12-23T07:37:05.238Z,1
2022-12-23T07:42:42.598Z,1
2022-12-23T07:47:46.375Z,1
2022-12-23T07:52:48.013Z,3
2022-12-23T07:57:49.796Z,1
2022-12-23T08:02:51.612Z,3
2022-12-23T08:07:53.291Z,1
2022-12-23T08:12:55.122Z,1
2022-12-23T08:17:56.880Z,1
2022-12-23T08:22:58.638Z,1
2022-12-23T08:28:00.368Z,3
2022-12-23T08:33:02.038Z,2
2022-12-23T08:38:03.765Z,3
2022-12-23T08:43:05.414Z,3
2022-12-23T08:48:07.100Z,1
2022-12-23T08:53:08.778Z,3
2022-12-23T08:58:10.417Z,1
2022-12-23T09:03:12.405Z,1
2022-12-23T09:08:14.134Z,3
2022-12-23T09:13:25.008Z,1
2022-12-23T09:18:29.771Z,1
2022-12-23T09:23:31.443Z,3
2022-12-23T09:28:33.124Z,3
2022-12-23T09:33:34.785Z,3
2022-12-23T09:38:36.682Z,10
2022-12-23T09:43:38.382Z,6
2022-12-23T09:48:40.062Z,9
2022-12-23T09:53:41.779Z,9
2022-12-23T09:58:43.383Z,4
2022-12-23T10:03:45.212Z,6
2022-12-23T10:08:47.225Z,3
2022-12-23T10:13:48.874Z,10
2022-12-23T10:18:50.601Z,4
2022-12-23T10:23:52.310Z,4
2022-12-23T10:28:53.950Z,4
2022-12-23T10:33:55.637Z,3
2022-12-23T10:38:57.415Z,3
2022-12-23T10:43:59.100Z,4
2022-12-23T10:49:00.816Z,3
2022-12-23T10:54:02.573Z,4
2022-12-23T10:59:04.284Z,8
2022-12-23T11:04:05.940Z,9
2022-12-23T11:09:07.988Z,7
2022-12-23T11:14:09.797Z,9
2022-12-23T11:19:11.792Z,25
2022-12-23T11:24:13.460Z,22
2022-12-23T11:29:15.275Z,13
2022-12-23T11:34:17.115Z,15
2022-12-23T11:39:18.760Z,9
2022-12-23T11:44:20.454Z,13
2022-12-23T11:49:22.103Z,12
2022-12-23T11:54:23.811Z,10
2022-12-23T11:59:25.657Z,12
2022-12-23T12:04:27.320Z,30
2022-12-23T12:09:29.315Z,9
2022-12-23T12:14:31.138Z,10
2022-12-23T12:19:32.962Z,12
2022-12-23T12:24:34.668Z,10
2022-12-23T12:29:36.551Z,24
2022-12-23T12:34:38.272Z,15
2022-12-23T12:39:40.040Z,31
2022-12-23T12:44:41.736Z,48
2022-12-23T12:49:43.637Z,52
2022-12-23T12:54:45.285Z,7
2022-12-23T12:59:46.940Z,6
2022-12-23T13:04:48.840Z,7
2022-12-23T13:09:50.516Z,6
2022-12-23T13:14:52.485Z,9
2022-12-23T13:19:54.162Z,6
2022-12-23T13:24:55.866Z,4
2022-12-23T13:29:58.574Z,7
2022-12-23T13:35:00.376Z,4
2022-12-23T13:40:02.091Z,3
2022-12-23T13:45:03.841Z,7
2022-12-23T13:50:05.642Z,6
2022-12-23T13:55:07.463Z,4
2022-12-23T14:00:09.125Z,4
2022-12-23T14:05:16.497Z,6
2022-12-23T14:10:18.684Z,3
2022-12-23T14:15:20.411Z,4
2022-12-23T14:20:22.081Z,6
2022-12-23T14:25:23.930Z,4
2022-12-23T14:30:25.643Z,3
2022-12-23T14:35:27.260Z,5
2022-12-23T14:40:28.947Z,5
2022-12-23T14:45:30.550Z,2
2022-12-23T14:50:32.368Z,4
2022-12-23T14:55:33.980Z,2
2022-12-23T15:00:35.907Z,4
2022-12-23T15:05:37.494Z,5
2022-12-23T15:10:39.131Z,4
2022-12-23T15:15:40.811Z,2
2022-12-23T15:20:43.294Z,4
2022-12-23T15:25:44.937Z,1
2022-12-23T15:30:46.649Z,2
2022-12-23T15:35:48.409Z,3
2022-12-23T15:40:50.109Z,6
2022-12-23T15:45:51.884Z,2
2022-12-23T15:50:53.585Z,3
2022-12-23T15:55:55.306Z,5
2022-12-23T16:00:56.929Z,5
2022-12-23T16:05:58.672Z,5
2022-12-23T16:11:00.435Z,2
2022-12-23T16:16:02.126Z,3
2022-12-23T16:21:03.831Z,5
2022-12-23T16:26:05.564Z,6
2022-12-23T16:31:07.244Z,3
2022-12-23T16:36:09.190Z,7
2022-12-23T16:41:10.851Z,21
2022-12-23T16:46:12.733Z,21
2022-12-23T16:51:14.445Z,77
2022-12-23T16:56:16.069Z,15
2022-12-23T17:01:17.694Z,16
2022-12-23T17:06:19.478Z,91
2022-12-23T17:11:21.173Z,68
2022-12-23T17:16:22.876Z,8
2022-12-23T17:21:24.656Z,57
2022-12-23T17:26:26.347Z,64
2022-12-23T17:31:28.074Z,42
2022-12-23T17:36:29.894Z,70
2022-12-23T17:41:31.610Z,12
2022-12-23T17:46:33.654Z,19
2022-12-23T17:51:35.307Z,24
2022-12-23T17:56:36.959Z,10
2022-12-23T18:01:38.925Z,40
2022-12-23T18:06:40.923Z,50
2022-12-23T18:11:42.713Z,34
2022-12-23T18:16:44.541Z,17
2022-12-23T18:21:46.421Z,25
2022-12-23T18:26:48.051Z,14
2022-12-23T18:31:51.049Z,8
2022-12-23T18:36:53.993Z,5
2022-12-23T18:41:55.713Z,3
2022-12-23T18:46:57.473Z,8
2022-12-23T18:51:59.193Z,8
2022-12-23T18:57:00.966Z,5
2022-12-23T19:02:02.756Z,2
2022-12-23T19:07:04.455Z,3
2022-12-23T19:12:06.221Z,5
2022-12-23T19:17:08.123Z,3
2022-12-23T19:22:09.798Z,5
2022-12-23T19:27:11.732Z,5
2022-12-23T19:32:13.353Z,3
2022-12-23T19:37:15.006Z,6
2022-12-23T19:42:16.655Z,7
2022-12-23T19:47:18.320Z,6
2022-12-23T19:52:19.984Z,5
2022-12-23T19:57:21.623Z,2
2022-12-23T20:02:23.291Z,5
2022-12-23T20:07:24.996Z,5
2022-12-23T20:12:26.635Z,2
2022-12-23T20:17:28.260Z,6
2022-12-23T20:22:29.932Z,5
2022-12-23T20:27:31.804Z,3
2022-12-23T20:32:33.542Z,3
2022-12-23T20:37:35.457Z,6
2022-12-23T20:42:37.259Z,6
2022-12-23T20:47:38.926Z,5
2022-12-23T20:52:40.562Z,6
2022-12-23T20:57:42.225Z,5
2022-12-23T21:02:43.932Z,3
2022-12-23T21:07:45.635Z,3
2022-12-23T21:12:47.335Z,5
2022-12-23T21:17:49.055Z,3
2022-12-23T21:22:50.704Z,2
2022-12-23T21:27:52.301Z,5
2022-12-23T21:32:53.932Z,5
2022-12-23T21:37:55.568Z,3
2022-12-23T21:42:57.390Z,5
2022-12-23T21:47:59.048Z,2
2022-12-23T21:53:00.754Z,1
2022-12-23T21:58:02.410Z,3
2022-12-23T22:03:04.061Z,3
2022-12-23T22:08:05.694Z,2
2022-12-23T22:13:07.432Z,3
2022-12-23T22:18:09.078Z,5
2022-12-23T22:23:10.744Z,3
2022-12-23T22:28:12.489Z,12
2022-12-23T22:33:14.118Z,5
2022-12-23T22:38:15.771Z,2
2022-12-23T22:43:17.468Z,1
2022-12-23T22:48:19.149Z,3
2022-12-23T22:53:24.908Z,3
2022-12-23T22:58:31.396Z,1
2022-12-23T23:03:33.134Z,2
2022-12-23T23:08:34.874Z,5
2022-12-23T23:13:36.484Z,2
2022-12-23T23:18:38.230Z,3
2022-12-23T23:23:39.853Z,5
2022-12-23T23:28:41.477Z,3
2022-12-23T23:33:43.180Z,3
2022-12-23T23:38:44.823Z,1
2022-12-23T23:43:46.518Z,2
2022-12-23T23:48:48.159Z,3
2022-12-23T23:53:49.874Z,2
2022-12-23T23:58:51.565Z,5
